E63 weather

Gila Bend Municipal Airport
Gila Bend, Arizona, United States

Public forecast

Using degrees Fahrenheit for public forecast. Weather courtesy of forecast.io.

METAR (pilot weather report)

Closest report is Gila Bend Af Aux Airport, 4.7 nm (8.8 km) SSW. Retrieved 2019/08/24 22:58 UTC (18 minutes ago):

KGXF 242258Z AUTO 26007KT 10SM SCT085 39/15 A2985 RMK AO2 SLP094 T03940153 $

TAF (pilot weather forecast)

Forecast is more than 12 hours old.

Closest forecast is Luke Air Force Base, 37.7 nm (69.8 km) NNE. Retrieved 2019/08/23 20:26 UTC (1 day ago):

TAF KLUF 232000Z 2320/2502 25009KT 9999 FEW120 FEW220 QNH2980INS BECMG 2402/2403 VRB06KT 9999 FEW050 FEW120 FEW250 QNH2979INS BECMG 2411/2412 31006KT 9999 BKN050 QNH2968INS TX43/2321Z TN28/2412Z LAST NO AMDS AFT 2323 NEXT 2604